Time;durP1;ratioP1;P1;durP2;ratioP2;P2;SDS_P1;SDS_P2;PMS_P1;PMS_P2;Temp;Humidity;BMP_temperature;BMP_pressure;BME280_temperature;BME280_humidity;BME280_pressure;Samples;Min_cycle;Max_cycle;Signal;HPM_P1;HPM_P2
2023/07/14 00:01:21;;;;;;;35.53;2.20;;;;;;;27.00;53.53;99684.41;7308926;19;130364;-33
2023/07/14 00:03:47;;;;;;;14.63;0.93;;;;;;;26.98;54.16;99691.66;7312800;19;130363;-35
2023/07/14 00:06:13;;;;;;;57.70;3.25;;;;;;;26.58;49.77;99689.16;7311909;19;130353;-32
2023/07/14 00:08:40;;;;;;;29.20;1.60;;;;;;;26.35;50.18;99691.69;7312897;19;129299;-31
2023/07/14 00:11:17;;;;;;;198.40;17.63;;;;;;;26.30;50.16;99694.00;7310297;19;130122;-33
2023/07/14 00:13:43;;;;;;;27.80;1.52;;;;;;;26.53;52.68;99697.56;7312122;19;129575;-32
2023/07/14 00:16:19;;;;;;;52.42;2.95;;;;;;;26.75;53.02;99704.81;7309857;19;129122;-36
2023/07/14 00:18:45;;;;;;;46.83;2.60;;;;;;;26.78;53.29;99704.44;7311588;19;129935;-35
2023/07/14 00:21:15;;;;;;;27.35;1.55;;;;;;;26.84;53.25;99700.31;7309725;19;131071;-34
2023/07/14 00:23:41;;;;;;;26.50;1.60;;;;;;;26.85;53.92;99700.16;7311582;19;130403;-36
2023/07/14 00:26:19;;;;;;;28.53;1.60;;;;;;;26.90;53.90;99703.09;7311746;19;129346;-37
2023/07/14 00:28:45;;;;;;;41.70;2.33;;;;;;;26.81;53.58;99690.09;7311086;19;128923;-34
2023/07/14 00:31:15;;;;;;;24.67;1.48;;;;;;;26.90;53.62;99705.72;7308992;19;129032;-40
2023/07/14 00:33:46;;;;;;;52.45;3.13;;;;;;;26.91;53.60;99710.00;7310633;19;130664;-33
2023/07/14 00:36:12;;;;;;;23.42;1.30;;;;;;;26.91;53.91;99706.53;7311463;19;128743;-34
2023/07/14 00:38:37;;;;;;;56.07;3.23;;;;;;;26.91;53.99;99710.00;7309621;19;129350;-36
2023/07/14 00:41:07;;;;;;;41.20;2.20;;;;;;;26.83;53.71;99710.03;7309101;19;130911;-39
2023/07/14 00:43:34;;;;;;;31.05;1.75;;;;;;;26.51;50.71;99694.28;7311348;19;131317;-39
2023/07/14 00:46:01;;;;;;;98.53;5.68;;;;;;;26.37;50.04;99720.50;7303949;19;129529;-40
2023/07/14 00:48:29;;;;;;;29.58;1.63;;;;;;;26.23;49.94;99721.22;7309906;19;129477;-37
2023/07/14 00:51:05;;;;;;;67.60;3.85;;;;;;;26.44;54.03;99711.78;7308337;19;130140;-34
2023/07/14 00:53:36;;;;;;;33.45;1.75;;;;;;;26.66;53.18;99721.63;7310827;19;131189;-33
2023/07/14 00:56:08;;;;;;;32.00;1.77;;;;;;;26.79;53.21;99716.63;7310651;19;129724;-33
2023/07/14 00:58:34;;;;;;;30.85;1.77;;;;;;;26.82;53.35;99713.66;7309462;19;130617;-36
2023/07/14 01:01:12;;;;;;;54.70;3.25;;;;;;;26.89;54.18;99714.63;7307629;19;129127;-35
2023/07/14 01:03:42;;;;;;;17.48;0.98;;;;;;;26.88;53.70;99718.28;7310311;19;129733;-32
2023/07/14 01:06:12;;;;;;;70.90;4.00;;;;;;;26.90;53.87;99710.19;7310336;19;129749;-32
2023/07/14 01:08:50;;;;;;;34.25;1.88;;;;;;;26.91;53.99;99717.91;7310089;19;128871;-34
2023/07/14 01:11:19;;;;;;;50.47;3.13;;;;;;;26.89;53.55;99709.34;7306682;19;129041;-35
2023/07/14 01:13:44;;;;;;;30.15;1.73;;;;;;;26.90;53.56;99704.91;7309920;19;129638;-35
2023/07/14 01:16:14;;;;;;;65.13;3.77;;;;;;;26.92;53.84;99709.00;7309218;19;129108;-34
2023/07/14 01:18:40;;;;;;;38.15;2.10;;;;;;;26.92;53.55;99700.28;7308877;19;128902;-37
2023/07/14 01:21:07;;;;;;;48.57;2.60;;;;;;;26.59;50.26;99701.34;7308741;19;130886;-32
2023/07/14 01:23:35;;;;;;;12.95;0.88;;;;;;;26.32;49.81;99697.28;7309259;19;132332;-35
2023/07/14 01:26:30;;;;;;;39.13;2.10;;;;;;;26.28;50.81;99693.34;7310398;19;129618;-37
2023/07/14 01:28:55;;;;;;;24.58;1.42;;;;;;;26.51;53.12;99699.53;7315318;19;129424;-36
2023/07/14 01:31:24;;;;;;;73.80;4.07;;;;;;;26.72;53.49;99693.75;7315411;19;129309;-37
2023/07/14 01:33:52;;;;;;;25.42;1.40;;;;;;;26.79;53.43;99698.16;7317220;19;130460;-35
2023/07/14 01:36:19;;;;;;;45.22;2.40;;;;;;;26.83;53.58;99686.28;7315700;19;129000;-39
2023/07/14 01:38:44;;;;;;;;;;;;;;;26.94;53.50;99696.47;7315840;19;129196;-38
2023/07/14 01:41:11;;;;;;;48.65;2.67;;;;;;;26.90;53.29;99689.91;7315140;19;129013;-33
2023/07/14 01:43:37;;;;;;;40.72;2.40;;;;;;;26.88;53.49;99697.16;7316168;19;130467;-32
2023/07/14 01:46:07;;;;;;;48.30;2.78;;;;;;;26.86;54.38;99698.31;7315312;19;131032;-35
2023/07/14 01:48:56;;;;;;;49.15;2.95;;;;;;;26.90;54.63;99705.72;7314956;19;129551;-36
2023/07/14 01:51:24;;;;;;;30.83;1.73;;;;;;;26.86;54.36;99703.59;7312179;19;130800;-29
2023/07/14 01:54:18;;;;;;;29.30;1.65;;;;;;;26.89;53.95;99698.78;7316095;19;130258;-36
2023/07/14 01:56:46;;;;;;;67.68;3.95;;;;;;;26.85;54.59;99702.78;7316463;19;129102;-35
2023/07/14 01:59:19;;;;;;;37.25;2.05;;;;;;;26.77;52.49;99705.47;7316131;19;129619;-35
2023/07/14 02:01:46;;;;;;;62.83;3.55;;;;;;;26.28;50.53;99709.16;7313352;19;129427;-35
2023/07/14 02:04:37;;;;;;;22.25;1.38;;;;;;;26.20;51.32;99701.25;7314740;19;129227;-34
2023/07/14 02:07:02;;;;;;;52.53;3.13;;;;;;;26.37;52.99;99702.88;7316047;19;128867;-40
2023/07/14 02:09:30;;;;;;;27.20;1.50;;;;;;;26.54;53.87;99699.19;7315569;19;129017;-34
2023/07/14 02:11:59;;;;;;;47.33;2.60;;;;;;;26.69;53.51;99713.38;7312257;19;130222;-34
2023/07/14 02:14:30;;;;;;;32.65;1.85;;;;;;;26.76;54.25;99714.34;7316227;19;131535;-34
2023/07/14 02:17:11;;;;;;;78.25;4.35;;;;;;;26.79;53.79;99708.72;7314869;19;128790;-37
2023/07/14 02:19:36;;;;;;;24.65;1.35;;;;;;;26.76;53.42;99701.16;7316230;19;130470;-31
2023/07/14 02:22:03;;;;;;;67.63;4.03;;;;;;;26.85;54.26;99707.22;7310093;19;129077;-37
2023/07/14 02:24:30;;;;;;;49.45;2.63;;;;;;;26.87;53.54;99715.81;7316331;19;130324;-33
2023/07/14 02:27:02;;;;;;;75.93;4.28;;;;;;;26.85;53.97;99718.63;7315041;19;129419;-42
2023/07/14 02:29:28;;;;;;;34.83;1.92;;;;;;;26.87;54.01;99711.31;7314690;19;129882;-38
2023/07/14 02:32:13;;;;;;;73.45;4.30;;;;;;;26.81;53.93;99701.47;7310982;19;129634;-40
2023/07/14 02:34:44;;;;;;;30.77;1.65;;;;;;;26.79;54.32;99707.94;7315160;19;129328;-35
2023/07/14 02:37:39;;;;;;;78.22;4.55;;;;;;;26.89;54.91;99712.00;7313441;19;129069;-34
2023/07/14 02:40:06;;;;;;;67.80;4.00;;;;;;;26.38;50.34;99719.50;7312475;19;129663;-35
2023/07/14 02:42:37;;;;;;;37.92;2.13;;;;;;;26.14;49.46;99701.94;7312222;19;130868;-42
2023/07/14 02:45:03;;;;;;;59.75;3.42;;;;;;;26.22;51.94;99716.91;7314997;19;130007;-35
2023/07/14 02:47:32;;;;;;;23.77;1.37;;;;;;;26.56;53.46;99713.06;7313694;19;129681;-35
2023/07/14 02:49:58;;;;;;;51.63;2.88;;;;;;;26.67;53.58;99715.38;7312931;19;129678;-32
2023/07/14 02:52:23;;;;;;;37.70;2.10;;;;;;;26.76;53.67;99719.63;7314427;19;129530;-34
2023/07/14 02:54:48;;;;;;;31.47;1.87;;;;;;;26.81;54.04;99719.09;7314775;19;129061;-36
2023/07/14 02:57:14;;;;;;;111.53;6.27;;;;;;;26.83;53.82;99719.75;7313619;19;129435;-31
2023/07/14 02:59:39;;;;;;;25.53;1.50;;;;;;;26.76;53.77;99706.44;7314053;19;128938;-33
2023/07/14 03:02:05;;;;;;;64.10;3.63;;;;;;;26.86;53.45;99717.59;7311785;19;130823;-41
2023/07/14 03:04:30;;;;;;;24.27;1.37;;;;;;;26.87;54.07;99716.59;7314545;19;131146;-31
2023/07/14 03:06:55;;;;;;;25.27;1.47;;;;;;;26.88;54.16;99720.06;7313662;19;128852;-40
2023/07/14 03:09:21;;;;;;;55.97;3.27;;;;;;;26.88;53.91;99720.91;7311960;19;130028;-39
2023/07/14 03:11:46;;;;;;;39.10;2.03;;;;;;;26.89;54.16;99719.09;7310793;19;129590;-34
2023/07/14 03:14:11;;;;;;;50.37;3.03;;;;;;;26.89;54.56;99721.75;7312367;19;131806;-37
2023/07/14 03:16:38;;;;;;;24.67;1.30;;;;;;;26.49;50.76;99719.19;7313131;19;129060;-41
2023/07/14 03:19:03;;;;;;;14.13;0.82;;;;;;;26.28;50.04;99730.25;7312615;19;130528;-37
2023/07/14 03:21:28;;;;;;;44.83;2.53;;;;;;;26.13;49.51;99704.75;7310241;19;128982;-37
2023/07/14 03:23:54;;;;;;;34.80;2.00;;;;;;;26.47;53.35;99723.78;7313144;19;129411;-34
2023/07/14 03:26:20;;;;;;;47.23;2.87;;;;;;;26.68;53.65;99713.53;7312074;19;129176;-31
2023/07/14 03:28:45;;;;;;;35.67;1.93;;;;;;;26.74;53.97;99711.06;7311058;19;129255;-39
2023/07/14 03:31:10;;;;;;;16.10;1.00;;;;;;;26.79;53.47;99715.84;7310946;19;129210;-38
2023/07/14 03:33:38;;;;;;;36.83;2.17;;;;;;;26.78;54.35;99712.38;7312606;19;129552;-35
2023/07/14 03:36:09;;;;;;;36.70;2.13;;;;;;;26.83;53.52;99714.50;7311595;19;128797;-36
2023/07/14 03:38:40;;;;;;;59.78;3.55;;;;;;;26.86;54.32;99714.13;7312073;19;129648;-34
2023/07/14 03:41:06;;;;;;;43.65;2.33;;;;;;;26.85;54.26;99718.63;7311875;19;130018;-32
2023/07/14 03:43:31;;;;;;;64.53;3.83;;;;;;;26.87;53.75;99721.88;7313348;19;129364;-33
2023/07/14 03:45:57;;;;;;;21.67;1.40;;;;;;;26.86;53.78;99719.41;7313327;19;128939;-34
2023/07/14 03:48:23;;;;;;;34.90;1.97;;;;;;;26.87;54.07;99724.53;7311675;19;129317;-43
2023/07/14 03:50:48;;;;;;;40.28;2.25;;;;;;;26.87;53.96;99723.72;7310553;19;129258;-33
2023/07/14 03:53:14;;;;;;;21.77;1.37;;;;;;;26.80;51.14;99726.22;7313049;19;130455;-37
2023/07/14 03:55:39;;;;;;;52.13;3.03;;;;;;;26.37;50.20;99718.72;7311264;19;129440;-35
2023/07/14 03:58:04;;;;;;;51.97;2.70;;;;;;;26.23;49.95;99719.38;7311806;19;129967;-30
2023/07/14 04:00:31;;;;;;;37.20;2.10;;;;;;;26.31;52.68;99711.44;7311415;19;129523;-38
2023/07/14 04:02:56;;;;;;;22.05;1.30;;;;;;;26.60;53.79;99714.38;7308711;19;130143;-38
2023/07/14 04:05:22;;;;;;;28.00;1.70;;;;;;;26.71;53.53;99721.94;7312077;19;130597;-33
2023/07/14 04:07:47;;;;;;;70.37;4.13;;;;;;;26.77;53.77;99718.66;7310610;19;129554;-35
2023/07/14 04:10:13;;;;;;;15.67;0.97;;;;;;;26.80;53.25;99726.22;7311867;19;129557;-35
2023/07/14 04:12:39;;;;;;;61.80;3.73;;;;;;;26.82;53.87;99724.22;7310856;19;129278;-44
2023/07/14 04:15:04;;;;;;;20.80;1.30;;;;;;;26.82;54.20;99716.28;7311991;19;130469;-35
2023/07/14 04:17:30;;;;;;;47.90;2.63;;;;;;;26.86;54.13;99717.59;7311551;19;130776;-30
2023/07/14 04:19:56;;;;;;;39.50;2.17;;;;;;;26.86;53.51;99720.25;7311283;19;129941;-38
2023/07/14 04:22:22;;;;;;;34.50;1.90;;;;;;;26.87;54.38;99726.34;7310976;19;130198;-33
2023/07/14 04:24:47;;;;;;;52.55;3.20;;;;;;;26.86;53.85;99725.53;7311011;19;130611;-35
2023/07/14 04:27:13;;;;;;;47.93;2.60;;;;;;;26.87;53.76;99726.34;7311995;19;130103;-35
2023/07/14 04:29:39;;;;;;;22.67;1.23;;;;;;;26.79;54.21;99715.84;7312526;19;130203;-45
2023/07/14 04:32:05;;;;;;;27.42;1.50;;;;;;;26.61;51.10;99721.28;7308587;19;130778;-32
2023/07/14 04:34:30;;;;;;;32.33;1.90;;;;;;;26.31;50.13;99729.09;7311278;19;130108;-33
2023/07/14 04:36:56;;;;;;;72.57;4.27;;;;;;;26.23;49.67;99731.75;7310901;19;131008;-38
2023/07/14 04:39:23;;;;;;;19.90;1.13;;;;;;;26.33;53.18;99733.19;7311628;19;129843;-40
2023/07/14 04:41:49;;;;;;;47.50;2.67;;;;;;;26.60;53.35;99730.19;7308185;19;129729;-32
2023/07/14 04:44:15;;;;;;;;;;;;;;;26.80;53.66;99731.50;7312135;19;129271;-35
2023/07/14 04:46:42;;;;;;;43.05;2.45;;;;;;;26.75;54.08;99731.19;7309693;19;129849;-39
2023/07/14 04:49:08;;;;;;;33.78;1.85;;;;;;;26.71;54.14;99716.66;7309561;19;129140;-38
2023/07/14 04:51:35;;;;;;;26.87;1.57;;;;;;;26.80;53.67;99728.84;7308383;19;129166;-40
2023/07/14 04:54:00;;;;;;;69.93;4.07;;;;;;;26.83;53.97;99723.22;7310118;19;129003;-34
2023/07/14 04:56:26;;;;;;;41.47;2.20;;;;;;;26.78;53.50;99717.66;7310092;19;128997;-35
2023/07/14 04:58:52;;;;;;;44.90;2.30;;;;;;;26.86;53.97;99724.69;7309451;19;129138;-42
2023/07/14 05:01:17;;;;;;;23.17;1.37;;;;;;;26.86;54.00;99730.81;7308218;19;129219;-29
2023/07/14 05:03:44;;;;;;;34.73;1.87;;;;;;;26.86;53.84;99728.16;7315397;19;130144;-39
2023/07/14 05:06:10;;;;;;;56.72;3.42;;;;;;;26.86;54.40;99728.16;7316542;19;128940;-39
2023/07/14 05:08:35;;;;;;;38.95;2.08;;;;;;;26.87;54.04;99726.34;7317035;19;130575;-34
2023/07/14 05:11:00;;;;;;;50.20;3.00;;;;;;;26.45;50.07;99723.97;7314094;19;131046;-37
2023/07/14 05:13:26;;;;;;;44.73;2.30;;;;;;;26.21;49.25;99729.28;7317261;19;129730;-36
2023/07/14 05:15:51;;;;;;;30.50;1.67;;;;;;;26.20;49.75;99732.88;7317773;19;128888;-33
2023/07/14 05:18:18;;;;;;;32.43;1.97;;;;;;;26.49;53.38;99732.38;7314551;19;130576;-34
2023/07/14 05:20:44;;;;;;;33.25;1.88;;;;;;;26.64;53.50;99731.47;7315251;19;130703;-32
2023/07/14 05:23:10;;;;;;;73.43;4.17;;;;;;;26.73;53.19;99730.53;7314329;19;129031;-30
2023/07/14 05:25:36;;;;;;;26.27;1.50;;;;;;;26.75;53.64;99733.81;7317540;19;129140;-35
2023/07/14 05:28:01;;;;;;;36.87;2.13;;;;;;;26.80;54.18;99741.22;7316604;19;129556;-40
2023/07/14 05:30:26;;;;;;;24.83;1.40;;;;;;;26.83;54.07;99730.31;7315643;19;129108;-39
2023/07/14 05:32:52;;;;;;;30.53;1.80;;;;;;;26.75;53.93;99720.63;7317063;19;129199;-35
2023/07/14 05:35:18;;;;;;;52.10;3.07;;;;;;;26.82;53.88;99729.47;7315424;19;129060;-33
2023/07/14 05:37:44;;;;;;;31.08;1.83;;;;;;;26.84;54.09;99731.97;7316768;19;130461;-34
2023/07/14 05:40:11;;;;;;;49.87;2.97;;;;;;;26.75;54.13;99720.63;7314134;19;129413;-39
2023/07/14 05:42:38;;;;;;;54.00;2.90;;;;;;;26.85;54.03;99734.44;7315375;19;131084;-39
2023/07/14 05:45:04;;;;;;;31.58;1.80;;;;;;;26.85;54.02;99742.38;7317305;19;129122;-36
2023/07/14 05:47:30;;;;;;;24.63;1.57;;;;;;;26.74;51.66;99739.25;7315531;19;129910;-33
2023/07/14 05:49:56;;;;;;;29.83;1.55;;;;;;;26.38;50.05;99738.81;7317027;19;130343;-34
2023/07/14 05:52:22;;;;;;;72.80;4.23;;;;;;;26.30;50.43;99735.34;7316342;19;129062;-41
2023/07/14 05:54:48;;;;;;;32.05;1.77;;;;;;;26.28;52.31;99735.50;7315710;19;129887;-35
2023/07/14 05:57:14;;;;;;;72.77;4.40;;;;;;;26.56;53.18;99734.16;7313037;19;130246;-41
2023/07/14 05:59:39;;;;;;;42.13;2.17;;;;;;;26.68;53.21;99738.13;7316241;19;129253;-36
2023/07/14 06:02:14;;;;;;;35.53;1.97;;;;;;;26.76;53.80;99730.19;7314283;19;130387;-37
2023/07/14 06:04:42;;;;;;;45.35;2.40;;;;;;;26.79;53.58;99740.38;7316022;19;129358;-31
2023/07/14 06:07:12;;;;;;;57.22;3.38;;;;;;;26.81;53.69;99738.41;7315158;19;130241;-38
2023/07/14 06:09:38;;;;;;;19.05;1.10;;;;;;;26.83;53.89;99736.44;7314641;19;130933;-41
2023/07/14 06:12:05;;;;;;;35.47;1.90;;;;;;;26.83;54.19;99731.16;7313288;19;129218;-29
2023/07/14 06:14:36;;;;;;;43.85;2.47;;;;;;;26.75;54.03;99722.44;7312711;19;130230;-37
2023/07/14 06:17:02;;;;;;;50.60;3.08;;;;;;;26.85;53.57;99742.38;7315565;19;129295;-34
2023/07/14 06:19:28;;;;;;;55.30;3.28;;;;;;;26.85;53.94;99739.72;7313800;19;130306;-39
2023/07/14 06:21:55;;;;;;;41.10;2.27;;;;;;;26.84;54.18;99724.06;7312791;19;130150;-31
2023/07/14 06:24:21;;;;;;;42.47;2.38;;;;;;;26.86;54.18;99729.97;7314813;19;131400;-41
2023/07/14 06:26:46;;;;;;;21.88;1.25;;;;;;;26.47;49.98;99724.63;7315359;19;130182;-37
2023/07/14 06:29:12;;;;;;;26.47;1.47;;;;;;;26.21;49.88;99729.28;7314211;19;130309;-36
2023/07/14 06:31:38;;;;;;;43.97;2.63;;;;;;;26.22;49.91;99730.91;7311995;19;128900;-32
2023/07/14 06:34:04;;;;;;;36.30;1.90;;;;;;;26.44;53.76;99722.31;7314989;19;129079;-33
2023/07/14 06:36:29;;;;;;;60.73;3.53;;;;;;;26.64;53.84;99714.88;7313505;19;129541;-32
2023/07/14 06:38:55;;;;;;;26.67;1.53;;;;;;;26.73;53.65;99714.69;7313669;19;130618;-35
2023/07/14 06:41:20;;;;;;;37.47;2.07;;;;;;;26.77;54.00;99708.09;7313025;19;129128;-32
2023/07/14 06:43:46;;;;;;;29.30;1.67;;;;;;;26.79;53.95;99714.00;7312190;19;129993;-35
2023/07/14 06:46:11;;;;;;;31.50;1.70;;;;;;;26.82;53.88;99713.66;7315165;19;130259;-35
2023/07/14 06:48:36;;;;;;;60.27;3.57;;;;;;;26.83;54.14;99704.75;7313018;19;129535;-42
2023/07/14 06:51:02;;;;;;;39.07;2.13;;;;;;;26.83;54.03;99710.03;7313528;19;130100;-34
2023/07/14 06:53:28;;;;;;;39.45;2.22;;;;;;;26.83;53.70;99710.03;7314972;19;129147;-41
2023/07/14 06:55:54;;;;;;;24.97;1.57;;;;;;;26.83;53.74;99704.75;7314370;19;129904;-38
2023/07/14 06:58:20;;;;;;;23.87;1.43;;;;;;;26.84;54.37;99703.75;7314034;19;130614;-34
2023/07/14 07:00:45;;;;;;;74.60;4.27;;;;;;;26.84;53.94;99706.41;7311361;19;129165;-37
2023/07/14 07:03:11;;;;;;;47.00;2.87;;;;;;;26.83;54.13;99704.75;7311289;19;129108;-39
2023/07/14 07:05:39;;;;;;;69.80;3.93;;;;;;;26.38;50.19;99699.25;7312721;19;129022;-36
2023/07/14 07:08:07;;;;;;;28.27;1.60;;;;;;;26.23;49.65;99698.28;7313389;19;131162;-37
2023/07/14 07:10:33;;;;;;;66.13;3.58;;;;;;;26.04;49.46;99688.09;7312698;19;129327;-44
2023/07/14 07:12:58;;;;;;;26.07;1.50;;;;;;;26.48;53.23;99699.88;7314157;19;128981;-32
2023/07/14 07:15:23;;;;;;;75.53;4.60;;;;;;;26.65;53.75;99695.41;7312315;19;131123;-38
2023/07/14 07:17:49;;;;;;;41.93;2.33;;;;;;;26.73;53.76;99698.88;7312462;19;129577;-31
2023/07/14 07:20:14;;;;;;;38.10;2.10;;;;;;;26.75;53.59;99686.34;7313722;19;128994;-40
2023/07/14 07:22:41;;;;;;;41.03;2.43;;;;;;;26.76;53.92;99687.97;7312532;19;130763;-34
2023/07/14 07:25:07;;;;;;;24.65;1.42;;;;;;;26.80;53.64;99681.38;7311593;19;130329;-30
2023/07/14 07:27:32;;;;;;;32.90;1.83;;;;;;;26.82;53.99;99684.63;7312061;19;130298;-34
2023/07/14 07:29:58;;;;;;;52.47;2.80;;;;;;;26.83;53.67;99680.19;7311020;19;128794;-39
2023/07/14 07:32:23;;;;;;;22.63;1.40;;;;;;;26.83;54.44;99678.38;7313404;19;129295;-35
2023/07/14 07:34:49;;;;;;;57.73;3.50;;;;;;;26.83;53.84;99683.66;7312410;19;131029;-34
2023/07/14 07:37:14;;;;;;;56.70;3.17;;;;;;;26.83;54.34;99678.38;7312669;19;129314;-39
2023/07/14 07:39:40;;;;;;;26.30;1.47;;;;;;;26.84;54.13;99680.00;7312739;19;129059;-33
2023/07/14 07:42:06;;;;;;;28.90;1.67;;;;;;;26.54;50.79;99672.84;7309603;19;129340;-35
2023/07/14 07:44:33;;;;;;;29.60;1.70;;;;;;;26.30;50.99;99670.28;7312422;19;130232;-36
2023/07/14 07:46:59;;;;;;;81.10;4.65;;;;;;;26.19;50.37;99673.28;7310376;19;129727;-38
2023/07/14 07:49:24;;;;;;;16.17;1.00;;;;;;;26.35;53.37;99670.59;7313701;19;129906;-32
2023/07/14 07:51:49;;;;;;;53.23;3.17;;;;;;;26.59;53.45;99681.06;7309001;19;129040;-36
2023/07/14 07:54:15;;;;;;;27.43;1.47;;;;;;;26.69;53.86;99676.44;7312720;19;130134;-36
2023/07/14 07:56:43;;;;;;;46.30;2.53;;;;;;;26.73;54.04;99664.56;7312954;19;131319;-40
2023/07/14 07:59:15;;;;;;;36.70;2.20;;;;;;;26.75;53.94;99665.22;7311145;19;128910;-34
2023/07/14 08:01:42;;;;;;;47.80;2.55;;;;;;;26.78;53.86;99664.88;7309205;19;129170;-42
2023/07/14 08:04:07;;;;;;;7.22;0.50;;;;;;;26.80;54.21;99668.19;7311140;19;129752;-32
2023/07/14 08:06:34;;;;;;;41.10;2.40;;;;;;;26.82;53.93;99665.38;7311579;19;129160;-41
2023/07/14 08:09:00;;;;;;;57.65;3.40;;;;;;;26.74;53.86;99658.28;7310282;19;129884;-33
2023/07/14 08:11:25;;;;;;;40.93;2.33;;;;;;;26.82;54.40;99666.16;7310444;19;129552;-39
2023/07/14 08:13:50;;;;;;;46.47;2.67;;;;;;;26.82;54.06;99660.88;7310836;19;129014;-36
2023/07/14 08:16:16;;;;;;;50.93;2.73;;;;;;;26.82;54.63;99658.25;7309213;19;129448;-32
2023/07/14 08:18:41;;;;;;;53.87;3.20;;;;;;;26.81;54.12;99659.25;7309626;19;129055;-40
2023/07/14 08:21:07;;;;;;;56.97;3.43;;;;;;;26.32;49.69;99663.03;7307061;19;129803;-34
2023/07/14 08:23:34;;;;;;;30.40;1.73;;;;;;;26.24;49.85;99663.06;7309641;19;129115;-34
2023/07/14 08:26:03;;;;;;;50.20;2.75;;;;;;;26.20;49.92;99659.09;7311227;19;130338;-43
2023/07/14 08:28:29;;;;;;;29.15;1.58;;;;;;;26.51;53.85;99657.34;7310610;19;129635;-39
2023/07/14 08:30:58;;;;;;;29.58;1.92;;;;;;;26.66;53.81;99660.97;7308697;19;129455;-36
2023/07/14 08:33:25;;;;;;;30.52;1.73;;;;;;;26.71;53.90;99642.81;7312617;19;129033;-38
2023/07/14 08:35:50;;;;;;;;;;;;;;;26.84;53.96;99640.44;7313272;19;130526;-33
2023/07/14 08:38:16;;;;;;;25.50;1.48;;;;;;;26.79;53.72;99644.59;7312925;19;129039;-35
2023/07/14 08:40:56;;;;;;;39.53;2.37;;;;;;;26.82;54.55;99645.06;7309500;19;129127;-40
2023/07/14 08:43:36;;;;;;;24.52;1.40;;;;;;;26.73;54.15;99630.28;7309420;19;129829;-36
2023/07/14 08:46:41;;;;;;;42.97;2.53;;;;;;;26.77;54.20;99636.88;7310164;19;130612;-33
2023/07/14 08:49:27;;;;;;;29.60;1.80;;;;;;;26.82;53.91;99644.25;7308872;19;129153;-34
2023/07/14 08:51:58;;;;;;;79.93;4.63;;;;;;;26.82;54.65;99650.34;7308589;19;129317;-35
2023/07/14 08:54:30;;;;;;;36.67;2.10;;;;;;;26.82;54.32;99645.06;7310969;19;130145;-33
2023/07/14 08:56:55;;;;;;;82.15;4.63;;;;;;;26.75;51.91;99643.28;7309001;19;131195;-44
2023/07/14 08:59:39;;;;;;;27.67;1.70;;;;;;;26.35;51.52;99646.03;7310234;19;129622;-35
2023/07/14 09:02:30;;;;;;;85.72;4.80;;;;;;;26.19;50.74;99649.56;7307121;19;129314;-36
2023/07/14 09:05:03;;;;;;;44.33;2.42;;;;;;;26.36;54.05;99659.03;7310611;19;131178;-36
2023/07/14 09:07:29;;;;;;;17.83;1.10;;;;;;;26.58;53.80;99658.31;7311180;19;130359;-35
2023/07/14 09:09:55;;;;;;;29.10;1.67;;;;;;;26.68;53.50;99648.44;7310288;19;129034;-36
2023/07/14 09:12:37;;;;;;;23.73;1.43;;;;;;;26.71;53.68;99642.81;7309575;19;131614;-38
2023/07/14 09:15:07;;;;;;;34.30;2.00;;;;;;;26.75;54.13;99644.13;7308879;19;130239;-33
2023/07/14 09:18:09;;;;;;;37.60;2.03;;;;;;;26.74;54.54;99625.84;7308947;19;130233;-35
2023/07/14 09:20:52;;;;;;;36.00;1.95;;;;;;;26.82;53.84;99637.16;7309372;19;130466;-38
2023/07/14 09:23:24;;;;;;;74.82;4.20;;;;;;;26.81;54.25;99637.31;7306978;19;130653;-32
2023/07/14 09:26:01;;;;;;;35.65;1.88;;;;;;;26.83;54.03;99635.34;7309602;19;129588;-36
2023/07/14 09:28:35;;;;;;;31.25;1.80;;;;;;;26.73;54.18;99618.91;7307962;19;129380;-34
2023/07/14 09:31:06;;;;;;;6.15;0.50;;;;;;;26.81;54.07;99634.69;7308903;19;129279;-35
2023/07/14 09:33:46;;;;;;;29.60;1.67;;;;;;;26.82;53.96;99629.22;7310076;19;129822;-34
2023/07/14 09:36:12;;;;;;;37.35;2.20;;;;;;;26.35;50.65;99625.78;7309089;19;130331;-37
2023/07/14 09:38:47;;;;;;;43.07;2.40;;;;;;;26.23;50.71;99627.13;7308380;19;130848;-40
2023/07/14 09:41:16;;;;;;;19.92;1.25;;;;;;;26.12;49.72;99621.38;7307273;19;129100;-35
2023/07/14 09:43:43;;;;;;;40.75;2.15;;;;;;;26.44;53.48;99630.03;7308048;19;129889;-40
2023/07/14 09:46:09;;;;;;;;;;;;;;;26.69;53.31;99618.41;7310498;19;130275;-35
2023/07/14 09:48:43;;;;;;;60.50;3.53;;;;;;;26.71;54.00;99624.34;7310732;19;130792;-36
2023/07/14 09:51:27;;;;;;;45.58;2.40;;;;;;;26.76;54.19;99614.09;7314731;19;129470;-32
2023/07/14 09:53:57;;;;;;;42.70;2.28;;;;;;;26.77;53.75;99610.50;7316435;19;129036;-34
2023/07/14 09:56:29;;;;;;;71.88;4.03;;;;;;;26.79;54.17;99611.13;7315121;19;130247;-36
2023/07/14 09:59:00;;;;;;;35.70;2.05;;;;;;;26.80;53.81;99607.50;7312579;19;130547;-35
2023/07/14 10:01:29;;;;;;;30.90;1.77;;;;;;;26.79;54.25;99595.28;7313882;19;129457;-40
2023/07/14 10:03:58;;;;;;;71.63;4.15;;;;;;;26.79;54.33;99586.56;7312815;19;129401;-34
2023/07/14 10:06:27;;;;;;;48.40;2.60;;;;;;;26.79;54.05;99592.66;7316173;19;129958;-34
2023/07/14 10:08:56;;;;;;;76.22;4.47;;;;;;;26.80;54.14;99589.03;7314101;19;130271;-35
2023/07/14 10:11:29;;;;;;;15.07;0.95;;;;;;;26.82;54.32;99591.50;7314951;19;129041;-34
2023/07/14 10:14:06;;;;;;;45.58;2.75;;;;;;;26.47;51.18;99573.50;7313752;19;128893;-40
2023/07/14 10:16:40;;;;;;;47.85;2.55;;;;;;;26.25;50.21;99577.69;7314843;19;130522;-35
2023/07/14 10:19:12;;;;;;;68.53;3.92;;;;;;;26.19;49.22;99569.66;7313956;19;131006;-29
2023/07/14 10:21:53;;;;;;;37.25;2.03;;;;;;;26.42;53.63;99567.91;7313665;19;129749;-37
2023/07/14 10:24:19;;;;;;;42.95;2.40;;;;;;;26.51;53.09;99562.44;7312052;19;129845;-40
2023/07/14 10:27:01;;;;;;;32.63;1.87;;;;;;;26.71;54.18;99576.03;7315358;19;131189;-34
2023/07/14 10:29:44;;;;;;;22.23;1.45;;;;;;;26.71;54.19;99571.59;7313839;19;129198;-33
2023/07/14 10:32:17;;;;;;;35.72;2.05;;;;;;;26.75;53.74;99565.00;7314625;19;129099;-41
2023/07/14 10:34:51;;;;;;;9.23;0.65;;;;;;;26.78;53.87;99563.81;7314714;19;130638;-32
2023/07/14 10:37:46;;;;;;;75.53;4.32;;;;;;;26.82;54.29;99565.13;7312422;19;129697;-44
2023/07/14 10:40:17;;;;;;;34.00;1.88;;;;;;;26.78;53.85;99567.28;7313760;19;129438;-36
2023/07/14 10:43:03;;;;;;;41.53;2.20;;;;;;;26.82;54.62;99557.19;7313428;19;129011;-34
2023/07/14 10:45:30;;;;;;;66.93;3.75;;;;;;;26.78;54.29;99548.81;7313689;19;129100;-34
2023/07/14 10:48:03;;;;;;;42.50;2.50;;;;;;;26.79;53.88;99545.16;7312903;19;130130;-42
2023/07/14 10:50:36;;;;;;;26.30;1.58;;;;;;;26.80;54.18;99546.00;7312666;19;130392;-35
2023/07/14 10:53:16;;;;;;;25.10;1.40;;;;;;;26.45;51.55;99536.75;7315296;19;130343;-34
2023/07/14 10:55:43;;;;;;;49.83;3.05;;;;;;;26.25;49.90;99546.06;7313323;19;128752;-37
2023/07/14 10:58:23;;;;;;;46.25;2.58;;;;;;;26.18;50.44;99529.28;7313182;19;129115;-34
2023/07/14 11:00:52;;;;;;;70.32;3.90;;;;;;;26.37;53.49;99534.16;7312137;19;129254;-32
2023/07/14 11:03:32;;;;;;;27.10;1.52;;;;;;;26.59;53.58;99528.09;7314087;19;129437;-33
2023/07/14 11:06:28;;;;;;;54.38;3.22;;;;;;;26.71;54.31;99526.75;7313838;19;128861;-35
2023/07/14 11:08:55;;;;;;;56.47;3.30;;;;;;;26.72;53.89;99517.88;7314587;19;129165;-34
2023/07/14 11:11:38;;;;;;;23.65;1.45;;;;;;;26.77;53.78;99522.59;7312591;19;129382;-33
2023/07/14 11:14:18;;;;;;;57.05;3.42;;;;;;;26.79;54.17;99523.25;7313434;19;130148;-33
2023/07/14 11:17:17;;;;;;;30.90;1.77;;;;;;;26.80;54.24;99515.16;7312999;19;130641;-41
2023/07/14 11:19:48;;;;;;;26.42;1.48;;;;;;;26.79;54.63;99515.34;7313989;19;129146;-37
2023/07/14 11:22:18;;;;;;;39.05;2.50;;;;;;;26.78;54.10;99517.16;7312031;19;130929;-32
2023/07/14 11:24:57;;;;;;;43.17;2.33;;;;;;;26.78;54.03;99501.31;7313996;19;129132;-32
2023/07/14 11:27:57;;;;;;;60.65;3.53;;;;;;;26.83;54.58;99511.34;7311702;19;129113;-39
2023/07/14 11:30:39;;;;;;;62.47;3.60;;;;;;;26.79;54.13;99502.97;7310501;19;131061;-33